sensor_id;sensor_type;location;lat;lon;timestamp;P1;durP1;ratioP1;P2;durP2;ratioP2
16792;SDS011;8513;42.662;23.350;2023-05-02T00:01:08;3.35;;;2.97;;
16792;SDS011;8513;42.662;23.350;2023-05-02T00:03:34;3.55;;;3.25;;
16792;SDS011;8513;42.662;23.350;2023-05-02T00:05:59;3.50;;;3.20;;
16792;SDS011;8513;42.662;23.350;2023-05-02T00:08:25;3.50;;;3.15;;
16792;SDS011;8513;42.662;23.350;2023-05-02T00:10:50;4.97;;;3.30;;
16792;SDS011;8513;42.662;23.350;2023-05-02T00:13:16;4.18;;;3.03;;
16792;SDS011;8513;42.662;23.350;2023-05-02T00:15:41;3.83;;;3.53;;
16792;SDS011;8513;42.662;23.350;2023-05-02T00:18:06;3.50;;;3.20;;
16792;SDS011;8513;42.662;23.350;2023-05-02T00:20:32;3.85;;;3.47;;
16792;SDS011;8513;42.662;23.350;2023-05-02T00:22:57;3.63;;;3.20;;
16792;SDS011;8513;42.662;23.350;2023-05-02T00:25:23;3.67;;;3.38;;
16792;SDS011;8513;42.662;23.350;2023-05-02T00:27:48;3.92;;;3.22;;
16792;SDS011;8513;42.662;23.350;2023-05-02T00:30:15;3.92;;;3.63;;
16792;SDS011;8513;42.662;23.350;2023-05-02T00:32:41;4.30;;;3.58;;
16792;SDS011;8513;42.662;23.350;2023-05-02T00:35:06;6.00;;;3.42;;
16792;SDS011;8513;42.662;23.350;2023-05-02T00:37:32;4.75;;;3.63;;
16792;SDS011;8513;42.662;23.350;2023-05-02T00:39:57;3.83;;;3.33;;
16792;SDS011;8513;42.662;23.350;2023-05-02T00:42:23;6.25;;;3.67;;
16792;SDS011;8513;42.662;23.350;2023-05-02T00:44:48;3.97;;;3.40;;
16792;SDS011;8513;42.662;23.350;2023-05-02T00:47:14;3.40;;;3.10;;
16792;SDS011;8513;42.662;23.350;2023-05-02T00:49:40;4.05;;;3.65;;
16792;SDS011;8513;42.662;23.350;2023-05-02T00:52:06;4.00;;;3.30;;
16792;SDS011;8513;42.662;23.350;2023-05-02T00:54:32;4.10;;;3.67;;
16792;SDS011;8513;42.662;23.350;2023-05-02T00:56:58;4.80;;;3.80;;
16792;SDS011;8513;42.662;23.350;2023-05-02T00:59:23;4.40;;;4.00;;
16792;SDS011;8513;42.662;23.350;2023-05-02T01:04:43;3.92;;;3.53;;
16792;SDS011;8513;42.662;23.350;2023-05-02T01:10:07;3.83;;;3.53;;
16792;SDS011;8513;42.662;23.350;2023-05-02T01:13:06;3.70;;;3.40;;
16792;SDS011;8513;42.662;23.350;2023-05-02T01:15:37;5.00;;;4.07;;
16792;SDS011;8513;42.662;23.350;2023-05-02T01:18:08;3.83;;;3.50;;
16792;SDS011;8513;42.662;23.350;2023-05-02T01:20:36;6.22;;;3.35;;
16792;SDS011;8513;42.662;23.350;2023-05-02T01:23:09;3.80;;;3.50;;
16792;SDS011;8513;42.662;23.350;2023-05-02T01:25:48;3.60;;;3.30;;
16792;SDS011;8513;42.662;23.350;2023-05-02T01:28:30;3.95;;;3.40;;
16792;SDS011;8513;42.662;23.350;2023-05-02T01:31:08;4.65;;;3.50;;
16792;SDS011;8513;42.662;23.350;2023-05-02T01:33:36;3.95;;;3.65;;
16792;SDS011;8513;42.662;23.350;2023-05-02T01:36:03;4.63;;;3.60;;
16792;SDS011;8513;42.662;23.350;2023-05-02T01:38:31;4.00;;;3.70;;
16792;SDS011;8513;42.662;23.350;2023-05-02T01:40:58;5.68;;;3.85;;
16792;SDS011;8513;42.662;23.350;2023-05-02T01:43:29;4.25;;;3.92;;
16792;SDS011;8513;42.662;23.350;2023-05-02T01:45:58;3.95;;;3.63;;
16792;SDS011;8513;42.662;23.350;2023-05-02T01:48:26;4.05;;;3.60;;
16792;SDS011;8513;42.662;23.350;2023-05-02T01:50:53;4.85;;;3.92;;
16792;SDS011;8513;42.662;23.350;2023-05-02T01:53:21;5.03;;;4.15;;
16792;SDS011;8513;42.662;23.350;2023-05-02T01:55:49;3.88;;;3.58;;
16792;SDS011;8513;42.662;23.350;2023-05-02T01:58:16;3.83;;;3.50;;
16792;SDS011;8513;42.662;23.350;2023-05-02T02:00:44;5.00;;;3.85;;
16792;SDS011;8513;42.662;23.350;2023-05-02T02:03:10;4.00;;;3.60;;
16792;SDS011;8513;42.662;23.350;2023-05-02T02:05:37;3.95;;;3.65;;
16792;SDS011;8513;42.662;23.350;2023-05-02T02:08:05;4.40;;;4.00;;
16792;SDS011;8513;42.662;23.350;2023-05-02T02:10:35;4.22;;;3.85;;
16792;SDS011;8513;42.662;23.350;2023-05-02T02:13:17;4.10;;;3.75;;
16792;SDS011;8513;42.662;23.350;2023-05-02T02:15:49;5.18;;;4.25;;
16792;SDS011;8513;42.662;23.350;2023-05-02T02:18:22;4.65;;;4.18;;
16792;SDS011;8513;42.662;23.350;2023-05-02T02:20:50;3.92;;;3.63;;
16792;SDS011;8513;42.662;23.350;2023-05-02T02:23:18;5.10;;;4.43;;
16792;SDS011;8513;42.662;23.350;2023-05-02T02:25:46;4.25;;;3.95;;
16792;SDS011;8513;42.662;23.350;2023-05-02T02:28:14;4.43;;;4.07;;
16792;SDS011;8513;42.662;23.350;2023-05-02T02:30:40;4.07;;;3.72;;
16792;SDS011;8513;42.662;23.350;2023-05-02T02:33:05;4.25;;;3.85;;
16792;SDS011;8513;42.662;23.350;2023-05-02T02:35:33;4.13;;;3.75;;
16792;SDS011;8513;42.662;23.350;2023-05-02T02:38:13;4.30;;;3.90;;
16792;SDS011;8513;42.662;23.350;2023-05-02T02:43:25;4.72;;;4.43;;
16792;SDS011;8513;42.662;23.350;2023-05-02T02:48:47;4.80;;;4.40;;
16792;SDS011;8513;42.662;23.350;2023-05-02T02:55:14;4.53;;;4.18;;
16792;SDS011;8513;42.662;23.350;2023-05-02T02:57:32;4.90;;;4.47;;
16792;SDS011;8513;42.662;23.350;2023-05-02T03:00:15;5.32;;;4.93;;
16792;SDS011;8513;42.662;23.350;2023-05-02T03:02:45;4.93;;;4.47;;
16792;SDS011;8513;42.662;23.350;2023-05-02T03:05:12;4.53;;;4.22;;
16792;SDS011;8513;42.662;23.350;2023-05-02T03:07:39;5.15;;;4.30;;
16792;SDS011;8513;42.662;23.350;2023-05-02T03:10:05;4.93;;;4.60;;
16792;SDS011;8513;42.662;23.350;2023-05-02T03:12:31;5.15;;;4.50;;
16792;SDS011;8513;42.662;23.350;2023-05-02T03:17:47;4.60;;;4.30;;
16792;SDS011;8513;42.662;23.350;2023-05-02T03:20:12;5.20;;;4.80;;
16792;SDS011;8513;42.662;23.350;2023-05-02T03:22:38;5.00;;;4.35;;
16792;SDS011;8513;42.662;23.350;2023-05-02T03:25:03;5.40;;;4.90;;
16792;SDS011;8513;42.662;23.350;2023-05-02T03:27:29;4.57;;;4.18;;
16792;SDS011;8513;42.662;23.350;2023-05-02T03:29:56;5.35;;;4.65;;
16792;SDS011;8513;42.662;23.350;2023-05-02T03:32:21;4.95;;;4.47;;
16792;SDS011;8513;42.662;23.350;2023-05-02T03:34:47;5.03;;;4.63;;
16792;SDS011;8513;42.662;23.350;2023-05-02T03:37:12;5.35;;;4.85;;
16792;SDS011;8513;42.662;23.350;2023-05-02T03:39:37;5.10;;;4.70;;
16792;SDS011;8513;42.662;23.350;2023-05-02T03:42:04;5.72;;;5.20;;
16792;SDS011;8513;42.662;23.350;2023-05-02T03:44:29;5.60;;;5.03;;
16792;SDS011;8513;42.662;23.350;2023-05-02T03:46:55;5.72;;;5.20;;
16792;SDS011;8513;42.662;23.350;2023-05-02T03:49:23;5.70;;;5.20;;
16792;SDS011;8513;42.662;23.350;2023-05-02T03:51:48;5.20;;;4.80;;
16792;SDS011;8513;42.662;23.350;2023-05-02T03:54:14;5.20;;;4.80;;
16792;SDS011;8513;42.662;23.350;2023-05-02T03:56:39;5.68;;;5.28;;
16792;SDS011;8513;42.662;23.350;2023-05-02T03:59:05;5.75;;;4.68;;
16792;SDS011;8513;42.662;23.350;2023-05-02T04:01:30;5.47;;;4.97;;
16792;SDS011;8513;42.662;23.350;2023-05-02T04:03:56;5.63;;;4.70;;
16792;SDS011;8513;42.662;23.350;2023-05-02T04:06:21;5.22;;;4.75;;
16792;SDS011;8513;42.662;23.350;2023-05-02T04:08:47;4.72;;;4.32;;
16792;SDS011;8513;42.662;23.350;2023-05-02T04:11:12;5.25;;;4.55;;
16792;SDS011;8513;42.662;23.350;2023-05-02T04:13:38;5.00;;;4.50;;
16792;SDS011;8513;42.662;23.350;2023-05-02T04:16:04;5.57;;;5.07;;
16792;SDS011;8513;42.662;23.350;2023-05-02T04:18:29;15.30;;;5.30;;
16792;SDS011;8513;42.662;23.350;2023-05-02T04:20:55;5.70;;;4.68;;
16792;SDS011;8513;42.662;23.350;2023-05-02T04:23:21;5.35;;;4.55;;
16792;SDS011;8513;42.662;23.350;2023-05-02T04:25:50;5.65;;;5.13;;
16792;SDS011;8513;42.662;23.350;2023-05-02T04:28:16;6.78;;;5.30;;
16792;SDS011;8513;42.662;23.350;2023-05-02T04:30:42;5.60;;;5.00;;
16792;SDS011;8513;42.662;23.350;2023-05-02T04:33:07;6.38;;;4.60;;
16792;SDS011;8513;42.662;23.350;2023-05-02T04:35:33;6.40;;;4.88;;
16792;SDS011;8513;42.662;23.350;2023-05-02T04:37:58;5.25;;;4.75;;
16792;SDS011;8513;42.662;23.350;2023-05-02T04:40:24;5.53;;;4.82;;
16792;SDS011;8513;42.662;23.350;2023-05-02T04:42:49;5.28;;;4.68;;
16792;SDS011;8513;42.662;23.350;2023-05-02T04:45:14;7.95;;;4.65;;
16792;SDS011;8513;42.662;23.350;2023-05-02T04:47:40;6.05;;;4.47;;
16792;SDS011;8513;42.662;23.350;2023-05-02T04:50:05;4.93;;;4.32;;
16792;SDS011;8513;42.662;23.350;2023-05-02T04:52:31;5.40;;;4.47;;
16792;SDS011;8513;42.662;23.350;2023-05-02T04:54:57;4.60;;;4.20;;
16792;SDS011;8513;42.662;23.350;2023-05-02T04:57:23;8.07;;;4.45;;
16792;SDS011;8513;42.662;23.350;2023-05-02T04:59:48;7.97;;;4.05;;
16792;SDS011;8513;42.662;23.350;2023-05-02T05:02:13;6.55;;;4.20;;
16792;SDS011;8513;42.662;23.350;2023-05-02T05:04:39;7.00;;;3.67;;
16792;SDS011;8513;42.662;23.350;2023-05-02T05:07:04;12.90;;;4.30;;
16792;SDS011;8513;42.662;23.350;2023-05-02T05:09:30;4.43;;;4.03;;
16792;SDS011;8513;42.662;23.350;2023-05-02T05:11:55;5.40;;;4.35;;
16792;SDS011;8513;42.662;23.350;2023-05-02T05:14:20;5.53;;;4.55;;
16792;SDS011;8513;42.662;23.350;2023-05-02T05:16:46;6.95;;;4.50;;
16792;SDS011;8513;42.662;23.350;2023-05-02T05:19:12;4.97;;;3.80;;
16792;SDS011;8513;42.662;23.350;2023-05-02T05:21:37;5.57;;;4.20;;
16792;SDS011;8513;42.662;23.350;2023-05-02T05:24:03;7.07;;;4.53;;
16792;SDS011;8513;42.662;23.350;2023-05-02T05:26:28;4.10;;;3.70;;
16792;SDS011;8513;42.662;23.350;2023-05-02T05:28:54;7.88;;;4.53;;
16792;SDS011;8513;42.662;23.350;2023-05-02T05:31:19;4.90;;;4.45;;
16792;SDS011;8513;42.662;23.350;2023-05-02T05:33:44;6.60;;;4.45;;
16792;SDS011;8513;42.662;23.350;2023-05-02T05:36:11;4.10;;;3.80;;
16792;SDS011;8513;42.662;23.350;2023-05-02T05:38:41;5.28;;;4.28;;
16792;SDS011;8513;42.662;23.350;2023-05-02T05:41:07;4.47;;;3.80;;
16792;SDS011;8513;42.662;23.350;2023-05-02T05:43:33;4.20;;;3.70;;
16792;SDS011;8513;42.662;23.350;2023-05-02T05:45:58;5.43;;;3.67;;
16792;SDS011;8513;42.662;23.350;2023-05-02T05:48:24;20.02;;;14.75;;
16792;SDS011;8513;42.662;23.350;2023-05-02T05:50:49;4.65;;;3.60;;
16792;SDS011;8513;42.662;23.350;2023-05-02T05:53:16;4.25;;;3.85;;
16792;SDS011;8513;42.662;23.350;2023-05-02T05:55:42;5.10;;;3.70;;
16792;SDS011;8513;42.662;23.350;2023-05-02T05:58:07;4.45;;;3.60;;
16792;SDS011;8513;42.662;23.350;2023-05-02T06:00:33;5.18;;;3.60;;
16792;SDS011;8513;42.662;23.350;2023-05-02T06:02:59;6.07;;;3.65;;
16792;SDS011;8513;42.662;23.350;2023-05-02T06:05:25;3.90;;;3.60;;
16792;SDS011;8513;42.662;23.350;2023-05-02T06:07:50;4.03;;;3.63;;
16792;SDS011;8513;42.662;23.350;2023-05-02T06:10:16;4.75;;;3.60;;
16792;SDS011;8513;42.662;23.350;2023-05-02T06:12:41;4.90;;;4.13;;
16792;SDS011;8513;42.662;23.350;2023-05-02T06:15:06;3.67;;;3.38;;
16792;SDS011;8513;42.662;23.350;2023-05-02T06:17:32;3.92;;;3.50;;
16792;SDS011;8513;42.662;23.350;2023-05-02T06:19:58;5.15;;;3.90;;
16792;SDS011;8513;42.662;23.350;2023-05-02T06:22:23;4.38;;;3.95;;
16792;SDS011;8513;42.662;23.350;2023-05-02T06:24:48;4.00;;;3.60;;
16792;SDS011;8513;42.662;23.350;2023-05-02T06:27:14;6.47;;;4.15;;
16792;SDS011;8513;42.662;23.350;2023-05-02T06:29:40;5.32;;;3.25;;
16792;SDS011;8513;42.662;23.350;2023-05-02T06:32:05;5.15;;;3.65;;
16792;SDS011;8513;42.662;23.350;2023-05-02T06:34:31;4.43;;;3.47;;
16792;SDS011;8513;42.662;23.350;2023-05-02T06:36:57;5.32;;;3.38;;
16792;SDS011;8513;42.662;23.350;2023-05-02T06:39:23;4.70;;;3.47;;
16792;SDS011;8513;42.662;23.350;2023-05-02T06:41:49;3.55;;;3.20;;
16792;SDS011;8513;42.662;23.350;2023-05-02T06:44:14;4.63;;;3.60;;
16792;SDS011;8513;42.662;23.350;2023-05-02T06:46:40;5.35;;;3.42;;
16792;SDS011;8513;42.662;23.350;2023-05-02T06:49:06;4.35;;;3.38;;
16792;SDS011;8513;42.662;23.350;2023-05-02T06:51:31;3.55;;;3.00;;
16792;SDS011;8513;42.662;23.350;2023-05-02T06:53:57;4.85;;;3.53;;
16792;SDS011;8513;42.662;23.350;2023-05-02T06:56:23;2.80;;;2.60;;
16792;SDS011;8513;42.662;23.350;2023-05-02T06:58:51;3.90;;;3.13;;
16792;SDS011;8513;42.662;23.350;2023-05-02T07:01:17;4.75;;;3.28;;
16792;SDS011;8513;42.662;23.350;2023-05-02T07:03:42;3.60;;;3.00;;
16792;SDS011;8513;42.662;23.350;2023-05-02T07:06:08;5.28;;;2.90;;
16792;SDS011;8513;42.662;23.350;2023-05-02T07:08:34;6.15;;;3.47;;
16792;SDS011;8513;42.662;23.350;2023-05-02T07:11:00;3.35;;;2.97;;
16792;SDS011;8513;42.662;23.350;2023-05-02T07:13:26;3.13;;;2.83;;
16792;SDS011;8513;42.662;23.350;2023-05-02T07:15:52;5.22;;;3.20;;
16792;SDS011;8513;42.662;23.350;2023-05-02T07:18:18;6.32;;;2.67;;
16792;SDS011;8513;42.662;23.350;2023-05-02T07:20:43;5.10;;;3.00;;
16792;SDS011;8513;42.662;23.350;2023-05-02T07:23:09;6.28;;;3.05;;
16792;SDS011;8513;42.662;23.350;2023-05-02T07:25:34;2.95;;;2.63;;
16792;SDS011;8513;42.662;23.350;2023-05-02T07:28:00;3.58;;;3.00;;
16792;SDS011;8513;42.662;23.350;2023-05-02T07:30:26;6.30;;;3.28;;
16792;SDS011;8513;42.662;23.350;2023-05-02T07:32:51;6.60;;;3.20;;
16792;SDS011;8513;42.662;23.350;2023-05-02T07:35:17;3.20;;;2.47;;
16792;SDS011;8513;42.662;23.350;2023-05-02T07:37:42;5.28;;;3.00;;
16792;SDS011;8513;42.662;23.350;2023-05-02T07:40:08;3.78;;;2.88;;
16792;SDS011;8513;42.662;23.350;2023-05-02T07:42:34;4.13;;;2.53;;
16792;SDS011;8513;42.662;23.350;2023-05-02T07:45:00;4.07;;;2.67;;
16792;SDS011;8513;42.662;23.350;2023-05-02T07:47:26;3.95;;;2.60;;
16792;SDS011;8513;42.662;23.350;2023-05-02T07:49:51;3.33;;;2.85;;
16792;SDS011;8513;42.662;23.350;2023-05-02T07:52:18;5.57;;;2.90;;
16792;SDS011;8513;42.662;23.350;2023-05-02T07:54:44;4.10;;;2.72;;
16792;SDS011;8513;42.662;23.350;2023-05-02T07:57:11;5.20;;;2.50;;
16792;SDS011;8513;42.662;23.350;2023-05-02T07:59:37;3.33;;;2.85;;
16792;SDS011;8513;42.662;23.350;2023-05-02T08:02:02;5.53;;;2.88;;
16792;SDS011;8513;42.662;23.350;2023-05-02T08:04:28;5.82;;;2.92;;
16792;SDS011;8513;42.662;23.350;2023-05-02T08:06:54;3.50;;;2.38;;
16792;SDS011;8513;42.662;23.350;2023-05-02T08:09:19;3.75;;;2.45;;
16792;SDS011;8513;42.662;23.350;2023-05-02T08:11:45;5.40;;;2.92;;
16792;SDS011;8513;42.662;23.350;2023-05-02T08:14:11;3.53;;;2.30;;
16792;SDS011;8513;42.662;23.350;2023-05-02T08:16:36;2.83;;;2.50;;
16792;SDS011;8513;42.662;23.350;2023-05-02T08:19:02;4.00;;;2.53;;
16792;SDS011;8513;42.662;23.350;2023-05-02T08:21:27;3.10;;;2.70;;
16792;SDS011;8513;42.662;23.350;2023-05-02T08:23:56;6.20;;;3.10;;
16792;SDS011;8513;42.662;23.350;2023-05-02T08:26:22;7.13;;;2.78;;
16792;SDS011;8513;42.662;23.350;2023-05-02T08:28:49;3.20;;;2.40;;
16792;SDS011;8513;42.662;23.350;2023-05-02T08:31:15;3.38;;;2.58;;
16792;SDS011;8513;42.662;23.350;2023-05-02T08:33:40;3.67;;;2.33;;
16792;SDS011;8513;42.662;23.350;2023-05-02T08:36:16;2.70;;;2.45;;
16792;SDS011;8513;42.662;23.350;2023-05-02T08:38:42;5.70;;;2.00;;
16792;SDS011;8513;42.662;23.350;2023-05-02T08:41:12;2.65;;;1.88;;
16792;SDS011;8513;42.662;23.350;2023-05-02T08:43:43;4.93;;;2.55;;
16792;SDS011;8513;42.662;23.350;2023-05-02T08:46:10;6.80;;;2.65;;
16792;SDS011;8513;42.662;23.350;2023-05-02T08:48:37;2.55;;;2.00;;
16792;SDS011;8513;42.662;23.350;2023-05-02T08:51:07;4.95;;;2.53;;
16792;SDS011;8513;42.662;23.350;2023-05-02T08:53:34;5.20;;;2.30;;
16792;SDS011;8513;42.662;23.350;2023-05-02T08:56:00;4.25;;;2.50;;
16792;SDS011;8513;42.662;23.350;2023-05-02T08:58:26;3.95;;;2.40;;
16792;SDS011;8513;42.662;23.350;2023-05-02T09:00:51;3.60;;;2.20;;
16792;SDS011;8513;42.662;23.350;2023-05-02T09:05:46;4.80;;;2.40;;
16792;SDS011;8513;42.662;23.350;2023-05-02T09:08:24;7.88;;;3.60;;
16792;SDS011;8513;42.662;23.350;2023-05-02T09:10:49;10.15;;;4.47;;
16792;SDS011;8513;42.662;23.350;2023-05-02T09:13:27;5.07;;;2.50;;
16792;SDS011;8513;42.662;23.350;2023-05-02T09:16:07;4.47;;;2.15;;
16792;SDS011;8513;42.662;23.350;2023-05-02T09:18:38;5.43;;;2.22;;
16792;SDS011;8513;42.662;23.350;2023-05-02T09:21:14;6.07;;;2.40;;
16792;SDS011;8513;42.662;23.350;2023-05-02T09:23:42;5.28;;;2.45;;
16792;SDS011;8513;42.662;23.350;2023-05-02T09:26:10;5.07;;;2.53;;
16792;SDS011;8513;42.662;23.350;2023-05-02T09:28:47;3.75;;;2.70;;
16792;SDS011;8513;42.662;23.350;2023-05-02T09:31:14;2.83;;;2.08;;
16792;SDS011;8513;42.662;23.350;2023-05-02T09:33:41;6.28;;;2.13;;
16792;SDS011;8513;42.662;23.350;2023-05-02T09:36:08;4.07;;;2.20;;
16792;SDS011;8513;42.662;23.350;2023-05-02T09:38:36;2.67;;;1.83;;
16792;SDS011;8513;42.662;23.350;2023-05-02T09:41:02;2.90;;;1.90;;
16792;SDS011;8513;42.662;23.350;2023-05-02T09:43:29;4.07;;;2.67;;
16792;SDS011;8513;42.662;23.350;2023-05-02T09:48:29;2.33;;;2.13;;
16792;SDS011;8513;42.662;23.350;2023-05-02T09:50:56;3.17;;;2.05;;
16792;SDS011;8513;42.662;23.350;2023-05-02T09:53:25;3.60;;;1.88;;
16792;SDS011;8513;42.662;23.350;2023-05-02T09:56:01;3.42;;;2.03;;
16792;SDS011;8513;42.662;23.350;2023-05-02T09:58:28;2.60;;;2.00;;
16792;SDS011;8513;42.662;23.350;2023-05-02T10:00:55;3.38;;;2.08;;
16792;SDS011;8513;42.662;23.350;2023-05-02T10:03:22;2.65;;;2.30;;
16792;SDS011;8513;42.662;23.350;2023-05-02T10:05:49;3.40;;;2.00;;
16792;SDS011;8513;42.662;23.350;2023-05-02T10:08:15;1.90;;;1.80;;
16792;SDS011;8513;42.662;23.350;2023-05-02T10:10:49;3.08;;;1.88;;
16792;SDS011;8513;42.662;23.350;2023-05-02T10:13:19;2.60;;;2.03;;
16792;SDS011;8513;42.662;23.350;2023-05-02T10:15:48;4.32;;;1.92;;
16792;SDS011;8513;42.662;23.350;2023-05-02T10:21:24;4.95;;;2.72;;
16792;SDS011;8513;42.662;23.350;2023-05-02T10:23:53;4.82;;;2.22;;
16792;SDS011;8513;42.662;23.350;2023-05-02T10:26:19;4.20;;;2.08;;
16792;SDS011;8513;42.662;23.350;2023-05-02T10:28:48;5.20;;;2.35;;
16792;SDS011;8513;42.662;23.350;2023-05-02T10:31:15;7.45;;;2.92;;
16792;SDS011;8513;42.662;23.350;2023-05-02T10:33:41;6.43;;;2.50;;
16792;SDS011;8513;42.662;23.350;2023-05-02T10:36:08;4.65;;;2.15;;
16792;SDS011;8513;42.662;23.350;2023-05-02T10:38:38;9.02;;;2.70;;
16792;SDS011;8513;42.662;23.350;2023-05-02T10:41:05;6.70;;;2.78;;
16792;SDS011;8513;42.662;23.350;2023-05-02T10:43:36;7.30;;;2.30;;
16792;SDS011;8513;42.662;23.350;2023-05-02T10:46:03;5.78;;;1.85;;
16792;SDS011;8513;42.662;23.350;2023-05-02T10:49:03;3.45;;;2.17;;
16792;SDS011;8513;42.662;23.350;2023-05-02T10:51:33;3.25;;;2.25;;
16792;SDS011;8513;42.662;23.350;2023-05-02T10:59:32;4.35;;;2.25;;
16792;SDS011;8513;42.662;23.350;2023-05-02T11:02:00;7.28;;;1.98;;
16792;SDS011;8513;42.662;23.350;2023-05-02T11:07:28;1.77;;;1.67;;
16792;SDS011;8513;42.662;23.350;2023-05-02T11:15:12;3.25;;;1.83;;
16792;SDS011;8513;42.662;23.350;2023-05-02T11:18:02;3.63;;;2.17;;
16792;SDS011;8513;42.662;23.350;2023-05-02T11:20:36;2.85;;;2.22;;
16792;SDS011;8513;42.662;23.350;2023-05-02T11:25:40;4.55;;;2.08;;
16792;SDS011;8513;42.662;23.350;2023-05-02T11:28:37;3.33;;;2.45;;
16792;SDS011;8513;42.662;23.350;2023-05-02T11:33:57;4.50;;;1.80;;
16792;SDS011;8513;42.662;23.350;2023-05-02T11:36:30;2.35;;;1.90;;
16792;SDS011;8513;42.662;23.350;2023-05-02T11:38:58;4.07;;;2.05;;
16792;SDS011;8513;42.662;23.350;2023-05-02T11:41:37;3.92;;;1.73;;
16792;SDS011;8513;42.662;23.350;2023-05-02T11:44:03;3.30;;;1.90;;
16792;SDS011;8513;42.662;23.350;2023-05-02T11:46:29;3.00;;;2.25;;
16792;SDS011;8513;42.662;23.350;2023-05-02T11:48:55;4.72;;;2.13;;
16792;SDS011;8513;42.662;23.350;2023-05-02T11:51:23;3.00;;;2.05;;
16792;SDS011;8513;42.662;23.350;2023-05-02T11:53:50;3.85;;;2.00;;
16792;SDS011;8513;42.662;23.350;2023-05-02T11:56:16;4.38;;;2.20;;
16792;SDS011;8513;42.662;23.350;2023-05-02T11:58:56;7.93;;;4.43;;
16792;SDS011;8513;42.662;23.350;2023-05-02T12:01:28;2.40;;;2.20;;
16792;SDS011;8513;42.662;23.350;2023-05-02T12:04:04;5.65;;;2.13;;
16792;SDS011;8513;42.662;23.350;2023-05-02T12:06:31;7.18;;;2.40;;
16792;SDS011;8513;42.662;23.350;2023-05-02T12:09:06;4.15;;;1.98;;
16792;SDS011;8513;42.662;23.350;2023-05-02T12:11:38;2.72;;;1.95;;
16792;SDS011;8513;42.662;23.350;2023-05-02T12:14:04;3.05;;;1.98;;
16792;SDS011;8513;42.662;23.350;2023-05-02T12:16:30;2.60;;;2.03;;
16792;SDS011;8513;42.662;23.350;2023-05-02T12:18:56;4.50;;;2.40;;
16792;SDS011;8513;42.662;23.350;2023-05-02T12:21:24;6.93;;;2.20;;
16792;SDS011;8513;42.662;23.350;2023-05-02T12:23:50;4.40;;;2.25;;
16792;SDS011;8513;42.662;23.350;2023-05-02T12:26:17;2.30;;;2.10;;
16792;SDS011;8513;42.662;23.350;2023-05-02T12:28:48;5.72;;;2.13;;
16792;SDS011;8513;42.662;23.350;2023-05-02T12:31:18;3.00;;;2.20;;
16792;SDS011;8513;42.662;23.350;2023-05-02T12:33:44;5.47;;;2.28;;
16792;SDS011;8513;42.662;23.350;2023-05-02T12:36:15;3.60;;;2.42;;
16792;SDS011;8513;42.662;23.350;2023-05-02T12:38:46;5.72;;;1.60;;
16792;SDS011;8513;42.662;23.350;2023-05-02T12:41:13;5.57;;;2.00;;
16792;SDS011;8513;42.662;23.350;2023-05-02T12:43:44;3.55;;;1.90;;
16792;SDS011;8513;42.662;23.350;2023-05-02T12:46:11;2.22;;;1.73;;
16792;SDS011;8513;42.662;23.350;2023-05-02T12:48:36;2.63;;;2.03;;
16792;SDS011;8513;42.662;23.350;2023-05-02T12:51:02;4.90;;;1.80;;
16792;SDS011;8513;42.662;23.350;2023-05-02T12:53:40;3.63;;;2.05;;
16792;SDS011;8513;42.662;23.350;2023-05-02T12:56:07;4.43;;;2.20;;
16792;SDS011;8513;42.662;23.350;2023-05-02T12:58:46;4.47;;;2.20;;
16792;SDS011;8513;42.662;23.350;2023-05-02T13:01:13;2.45;;;1.83;;
16792;SDS011;8513;42.662;23.350;2023-05-02T13:03:39;3.70;;;2.00;;
16792;SDS011;8513;42.662;23.350;2023-05-02T13:06:05;3.35;;;1.63;;
16792;SDS011;8513;42.662;23.350;2023-05-02T13:08:31;3.05;;;1.75;;
16792;SDS011;8513;42.662;23.350;2023-05-02T13:10:58;2.85;;;2.00;;
16792;SDS011;8513;42.662;23.350;2023-05-02T13:13:23;3.45;;;1.70;;
16792;SDS011;8513;42.662;23.350;2023-05-02T13:15:49;2.90;;;2.03;;
16792;SDS011;8513;42.662;23.350;2023-05-02T13:18:14;3.50;;;1.90;;
16792;SDS011;8513;42.662;23.350;2023-05-02T13:20:40;3.63;;;1.90;;
16792;SDS011;8513;42.662;23.350;2023-05-02T13:23:05;2.95;;;1.83;;
16792;SDS011;8513;42.662;23.350;2023-05-02T13:25:30;1.98;;;1.75;;
16792;SDS011;8513;42.662;23.350;2023-05-02T13:27:56;1.98;;;1.75;;
16792;SDS011;8513;42.662;23.350;2023-05-02T13:30:22;3.85;;;1.70;;
16792;SDS011;8513;42.662;23.350;2023-05-02T13:32:48;5.43;;;2.50;;
16792;SDS011;8513;42.662;23.350;2023-05-02T13:35:13;2.90;;;1.95;;
16792;SDS011;8513;42.662;23.350;2023-05-02T13:37:39;1.98;;;1.70;;
16792;SDS011;8513;42.662;23.350;2023-05-02T13:40:05;5.22;;;1.83;;
16792;SDS011;8513;42.662;23.350;2023-05-02T13:42:31;4.75;;;1.70;;
16792;SDS011;8513;42.662;23.350;2023-05-02T13:44:57;2.90;;;1.80;;
16792;SDS011;8513;42.662;23.350;2023-05-02T13:47:22;4.28;;;1.85;;
16792;SDS011;8513;42.662;23.350;2023-05-02T13:49:48;3.40;;;1.80;;
16792;SDS011;8513;42.662;23.350;2023-05-02T13:52:14;3.30;;;1.90;;
16792;SDS011;8513;42.662;23.350;2023-05-02T13:54:40;2.40;;;1.50;;
16792;SDS011;8513;42.662;23.350;2023-05-02T13:57:05;2.33;;;1.70;;
16792;SDS011;8513;42.662;23.350;2023-05-02T13:59:31;4.88;;;2.05;;
16792;SDS011;8513;42.662;23.350;2023-05-02T14:01:56;2.20;;;1.50;;
16792;SDS011;8513;42.662;23.350;2023-05-02T14:04:22;2.85;;;1.80;;
16792;SDS011;8513;42.662;23.350;2023-05-02T14:06:47;2.90;;;1.92;;
16792;SDS011;8513;42.662;23.350;2023-05-02T14:09:12;2.92;;;1.75;;
16792;SDS011;8513;42.662;23.350;2023-05-02T14:11:39;3.15;;;1.85;;
16792;SDS011;8513;42.662;23.350;2023-05-02T14:14:05;3.08;;;2.45;;
16792;SDS011;8513;42.662;23.350;2023-05-02T14:16:30;3.00;;;1.98;;
16792;SDS011;8513;42.662;23.350;2023-05-02T14:18:56;2.92;;;2.30;;
16792;SDS011;8513;42.662;23.350;2023-05-02T14:21:21;3.72;;;2.15;;
16792;SDS011;8513;42.662;23.350;2023-05-02T14:23:47;3.20;;;2.53;;
16792;SDS011;8513;42.662;23.350;2023-05-02T14:26:12;6.07;;;2.80;;
16792;SDS011;8513;42.662;23.350;2023-05-02T14:28:38;3.47;;;3.00;;
16792;SDS011;8513;42.662;23.350;2023-05-02T14:31:03;5.47;;;3.00;;
16792;SDS011;8513;42.662;23.350;2023-05-02T14:33:29;2.83;;;2.47;;
16792;SDS011;8513;42.662;23.350;2023-05-02T14:35:57;2.92;;;2.53;;
16792;SDS011;8513;42.662;23.350;2023-05-02T14:38:23;3.10;;;2.70;;
16792;SDS011;8513;42.662;23.350;2023-05-02T14:40:48;4.50;;;2.22;;
16792;SDS011;8513;42.662;23.350;2023-05-02T14:43:13;2.78;;;2.53;;
16792;SDS011;8513;42.662;23.350;2023-05-02T14:45:39;3.47;;;2.65;;
16792;SDS011;8513;42.662;23.350;2023-05-02T14:48:04;4.70;;;2.75;;
16792;SDS011;8513;42.662;23.350;2023-05-02T14:50:32;4.47;;;2.72;;
16792;SDS011;8513;42.662;23.350;2023-05-02T14:52:57;4.25;;;3.00;;
16792;SDS011;8513;42.662;23.350;2023-05-02T14:55:23;4.05;;;2.70;;
16792;SDS011;8513;42.662;23.350;2023-05-02T14:57:48;3.47;;;2.40;;
16792;SDS011;8513;42.662;23.350;2023-05-02T15:00:14;5.53;;;2.40;;
16792;SDS011;8513;42.662;23.350;2023-05-02T15:02:40;2.92;;;2.25;;
16792;SDS011;8513;42.662;23.350;2023-05-02T15:05:06;3.80;;;1.98;;
16792;SDS011;8513;42.662;23.350;2023-05-02T15:07:35;4.45;;;1.90;;
16792;SDS011;8513;42.662;23.350;2023-05-02T15:10:01;3.30;;;2.22;;
16792;SDS011;8513;42.662;23.350;2023-05-02T15:12:27;5.05;;;2.20;;
16792;SDS011;8513;42.662;23.350;2023-05-02T15:14:52;4.97;;;2.70;;
16792;SDS011;8513;42.662;23.350;2023-05-02T15:17:18;3.90;;;2.03;;
16792;SDS011;8513;42.662;23.350;2023-05-02T15:19:43;2.13;;;2.03;;
16792;SDS011;8513;42.662;23.350;2023-05-02T15:22:09;5.30;;;2.10;;
16792;SDS011;8513;42.662;23.350;2023-05-02T15:24:34;3.83;;;1.92;;
16792;SDS011;8513;42.662;23.350;2023-05-02T15:27:00;1.70;;;1.60;;
16792;SDS011;8513;42.662;23.350;2023-05-02T15:29:25;4.32;;;1.80;;
16792;SDS011;8513;42.662;23.350;2023-05-02T15:31:51;4.93;;;1.55;;
16792;SDS011;8513;42.662;23.350;2023-05-02T15:34:18;5.00;;;2.42;;